Time;durP1;ratioP1;P1;durP2;ratioP2;P2;SDS_P1;SDS_P2;PMS_P1;PMS_P2;Temp;Humidity;BMP_temperature;BMP_pressure;BME280_temperature;BME280_humidity;BME280_pressure;Samples;Min_cycle;Max_cycle;Signal;HPM_P1;HPM_P2
2021/07/31 00:01:01;;;;;;;5.55;3.27;;;;;;;11.78;62.75;98673.44;1747366;81;21089;-62
2021/07/31 00:03:28;;;;;;;8.70;3.60;;;;;;;11.75;62.85;98669.25;1740144;81;20885;-62
2021/07/31 00:05:56;;;;;;;9.83;4.00;;;;;;;11.71;62.99;98673.51;1735826;81;20895;-62
2021/07/31 00:08:22;;;;;;;6.95;3.70;;;;;;;11.66;63.12;98668.58;1714514;81;20895;-62
2021/07/31 00:10:49;;;;;;;10.17;3.57;;;;;;;11.61;63.28;98661.52;1747845;81;20939;-62
2021/07/31 00:13:16;;;;;;;5.90;3.47;;;;;;;11.59;63.36;98663.39;1738892;82;21109;-62
2021/07/31 00:15:43;;;;;;;8.00;3.30;;;;;;;11.57;63.47;98661.38;1738181;82;20904;-62
2021/07/31 00:18:10;;;;;;;9.13;3.87;;;;;;;11.53;63.73;98659.89;1736356;82;21382;-62
2021/07/31 00:20:37;;;;;;;9.18;3.40;;;;;;;11.51;63.72;98653.48;1738471;82;20950;-62
2021/07/31 00:23:04;;;;;;;;;;;;;;;11.48;63.90;98655.44;1730965;82;20906;-63
2021/07/31 00:25:31;;;;;;;5.87;3.95;;;;;;;11.42;64.21;98653.61;1729374;82;21037;-63
2021/07/31 00:27:58;;;;;;;7.75;4.22;;;;;;;11.38;64.06;98650.02;1729523;82;20880;-62
2021/07/31 00:30:26;;;;;;;6.63;4.07;;;;;;;11.37;64.26;98643.95;1735715;82;20895;-62
2021/07/31 00:32:53;;;;;;;9.90;3.60;;;;;;;11.37;64.35;98649.19;1736794;82;20872;-62
2021/07/31 00:35:20;;;;;;;7.22;3.50;;;;;;;11.42;64.47;98656.70;1739664;82;20958;-62
2021/07/31 00:37:46;;;;;;;7.58;3.85;;;;;;;11.41;64.47;98654.56;1730485;82;21144;-62
2021/07/31 00:40:14;;;;;;;10.00;4.20;;;;;;;11.39;64.56;98657.73;1734277;82;20907;-62
2021/07/31 00:42:44;;;;;;;11.03;3.45;;;;;;;11.42;64.61;98656.22;1735826;82;20938;-62
2021/07/31 00:45:13;;;;;;;7.55;3.47;;;;;;;11.42;64.64;98654.91;1733539;82;20922;-62
2021/07/31 00:47:41;;;;;;;7.55;3.77;;;;;;;11.45;64.92;98660.88;1752510;81;21535;-62
2021/07/31 00:50:08;;;;;;;7.05;3.30;;;;;;;11.42;64.95;98661.92;1732652;81;21853;-62
2021/07/31 00:52:36;;;;;;;6.65;3.10;;;;;;;11.39;65.08;98656.91;1726335;82;21457;-62
2021/07/31 00:55:03;;;;;;;;;;;;;;;11.38;65.21;98653.46;1752552;80;22066;-62
2021/07/31 00:57:32;;;;;;;9.03;4.35;;;;;;;11.38;65.51;98658.69;1697101;82;20129;-62
2021/07/31 00:59:59;;;;;;;7.37;3.15;;;;;;;11.38;65.42;98652.63;1727276;81;20954;-62
2021/07/31 01:02:26;;;;;;;5.58;3.05;;;;;;;11.36;65.51;98650.11;1725233;82;21098;-62
2021/07/31 01:04:53;;;;;;;4.62;2.77;;;;;;;11.36;65.68;98654.03;1755858;80;20944;-62
2021/07/31 01:07:20;;;;;;;8.33;4.00;;;;;;;11.37;65.75;98651.80;1725105;81;20913;-62
2021/07/31 01:09:47;;;;;;;9.40;2.83;;;;;;;11.36;65.86;98655.33;1744681;81;20897;-62
2021/07/31 01:12:14;;;;;;;5.87;3.17;;;;;;;11.38;66.03;98652.63;1760040;80;20959;-62
2021/07/31 01:14:41;;;;;;;8.25;3.80;;;;;;;11.39;66.10;98656.43;1699676;81;21104;-62
2021/07/31 01:17:11;;;;;;;9.33;3.77;;;;;;;11.39;66.19;98644.67;1745938;80;20900;-62
2021/07/31 01:19:36;;;;;;;5.25;3.00;;;;;;;11.41;66.30;98642.80;1721688;82;20985;-62
2021/07/31 01:22:03;;;;;;;11.60;3.22;;;;;;;11.45;66.42;98645.20;1727397;82;20915;-62
2021/07/31 01:24:30;;;;;;;6.28;2.77;;;;;;;11.45;66.48;98643.89;1673400;82;20931;-62
2021/07/31 01:26:57;;;;;;;4.97;2.83;;;;;;;11.46;66.58;98642.97;1725084;82;21938;-62
2021/07/31 01:29:23;;;;;;;4.60;2.72;;;;;;;11.47;66.72;98641.55;1723118;81;21430;-62
2021/07/31 01:31:50;;;;;;;6.40;3.00;;;;;;;11.49;66.78;98638.84;1725978;82;20900;-62
2021/07/31 01:34:24;;;;;;;7.10;3.63;;;;;;;11.54;66.83;98641.95;1724810;82;20961;-62
2021/07/31 01:36:51;;;;;;;5.78;2.90;;;;;;;11.57;66.94;98647.00;1725729;82;20897;-62
2021/07/31 01:39:17;;;;;;;6.35;3.98;;;;;;;11.59;66.92;98639.86;1725209;82;21121;-62
2021/07/31 01:41:44;;;;;;;7.47;3.22;;;;;;;11.55;66.87;98644.47;1725864;82;20891;-62
2021/07/31 01:44:11;;;;;;;5.27;3.40;;;;;;;11.48;66.88;98626.69;1726518;82;20919;-62
2021/07/31 01:46:38;;;;;;;7.10;3.30;;;;;;;11.46;67.11;98623.37;1726592;82;20943;-62
2021/07/31 01:49:04;;;;;;;11.57;3.08;;;;;;;11.45;67.13;98629.52;1724191;82;20915;-62
2021/07/31 01:51:31;;;;;;;6.23;3.47;;;;;;;11.42;67.24;98617.02;1725708;82;21112;-62
2021/07/31 01:53:58;;;;;;;6.57;3.67;;;;;;;11.41;67.41;98619.27;1724569;82;21502;-62
2021/07/31 01:56:26;;;;;;;4.47;2.98;;;;;;;11.39;67.56;98613.30;1723708;81;25763;-62
2021/07/31 01:58:52;;;;;;;7.33;3.25;;;;;;;11.36;67.61;98618.75;1723786;82;20927;-62
2021/07/31 02:01:20;;;;;;;3.30;2.87;;;;;;;11.30;67.64;98616.55;1726016;82;20976;-62
2021/07/31 02:03:46;;;;;;;5.10;3.27;;;;;;;11.27;67.68;98612.84;1725966;82;21076;-62
2021/07/31 02:06:13;;;;;;;6.33;3.70;;;;;;;11.26;67.84;98615.11;1725339;82;20918;-62
2021/07/31 02:08:40;;;;;;;4.80;2.65;;;;;;;11.27;68.02;98612.02;1728088;82;21512;-63
2021/07/31 02:11:06;;;;;;;6.90;4.08;;;;;;;11.27;68.07;98608.92;1723089;81;21853;-62
2021/07/31 02:13:33;;;;;;;8.57;3.50;;;;;;;11.28;68.21;98607.97;1742971;81;20958;-62
2021/07/31 02:16:00;;;;;;;4.67;3.03;;;;;;;11.29;68.23;98614.89;1737896;81;21759;-62
2021/07/31 02:18:26;;;;;;;6.85;3.72;;;;;;;11.18;68.33;98589.96;1740892;81;22109;-62
2021/07/31 02:20:53;;;;;;;7.22;2.70;;;;;;;11.30;68.43;98603.48;1741184;81;20901;-62
2021/07/31 02:23:19;;;;;;;3.20;2.43;;;;;;;11.28;68.38;98602.75;1736702;81;20938;-62
2021/07/31 02:25:46;;;;;;;6.22;2.42;;;;;;;11.23;68.39;98597.02;1735811;81;20956;-62
2021/07/31 02:28:13;;;;;;;4.75;3.42;;;;;;;11.16;68.58;98590.53;1746813;80;21038;-62
2021/07/31 02:30:39;;;;;;;3.98;3.12;;;;;;;11.16;68.86;98590.05;1743659;81;20908;-62
2021/07/31 02:33:06;;;;;;;5.25;3.47;;;;;;;11.23;69.05;98586.58;1739401;81;20959;-63
2021/07/31 02:35:35;;;;;;;7.20;3.05;;;;;;;11.29;69.16;98592.68;1740264;81;20872;-62
2021/07/31 02:38:03;;;;;;;6.85;3.65;;;;;;;11.37;69.18;98585.60;1734903;81;20880;-63
2021/07/31 02:40:31;;;;;;;10.53;3.58;;;;;;;11.40;69.11;98582.33;1735181;81;21040;-62
2021/07/31 02:42:58;;;;;;;4.67;2.85;;;;;;;11.40;69.10;98588.86;1745141;81;20908;-62
2021/07/31 02:45:24;;;;;;;8.78;4.25;;;;;;;11.41;69.16;98593.14;1740592;81;20971;-62
2021/07/31 02:47:51;;;;;;;6.67;2.77;;;;;;;11.39;69.12;98591.09;1740700;81;20895;-62
2021/07/31 02:50:18;;;;;;;5.23;2.63;;;;;;;11.35;69.13;98593.56;1746278;81;20879;-62
2021/07/31 02:52:44;;;;;;;4.65;2.67;;;;;;;11.28;69.14;98602.75;1738296;81;22116;-62
2021/07/31 02:55:11;;;;;;;5.92;2.85;;;;;;;11.20;69.24;98595.89;1737093;81;20896;-62
2021/07/31 02:57:38;;;;;;;4.80;2.53;;;;;;;11.16;69.38;98600.98;1742237;81;20887;-62
2021/07/31 03:00:06;;;;;;;5.33;2.60;;;;;;;11.15;69.57;98603.23;1743349;81;20980;-62
2021/07/31 03:02:33;;;;;;;7.35;4.03;;;;;;;11.14;69.60;98595.84;1738742;81;20876;-62
2021/07/31 03:05:00;;;;;;;5.87;3.90;;;;;;;11.17;69.77;98594.80;1739776;81;21047;-62
2021/07/31 03:07:26;;;;;;;6.57;3.20;;;;;;;11.26;69.96;98595.51;1736531;81;20944;-62
2021/07/31 03:09:53;;;;;;;6.60;3.20;;;;;;;11.34;69.99;98589.29;1737442;81;20943;-62
2021/07/31 03:12:20;;;;;;;8.55;3.90;;;;;;;11.43;70.10;98588.65;1741739;81;20927;-62
2021/07/31 03:14:47;;;;;;;5.22;3.00;;;;;;;11.53;70.20;98590.14;1738246;81;20972;-62
2021/07/31 03:17:14;;;;;;;;;;;;;;;11.63;70.19;98589.88;1739674;81;21007;-62
2021/07/31 03:19:40;;;;;;;5.20;3.08;;;;;;;11.72;70.30;98585.78;1739724;81;20422;-63
2021/07/31 03:22:07;;;;;;;7.10;2.67;;;;;;;11.80;70.28;98583.47;1741952;81;21494;-62
2021/07/31 03:24:34;;;;;;;3.90;2.62;;;;;;;12.01;70.36;98577.69;1740605;81;20891;-62
2021/07/31 03:27:01;;;;;;;3.77;2.50;;;;;;;12.49;70.47;98573.77;1739090;81;20916;-62
2021/07/31 03:29:27;;;;;;;4.12;2.80;;;;;;;13.03;70.22;98571.11;1740363;81;21052;-62
2021/07/31 03:31:54;;;;;;;5.13;2.93;;;;;;;13.35;69.71;98574.74;1737877;81;20986;-62
2021/07/31 03:34:23;;;;;;;8.43;2.83;;;;;;;13.29;69.39;98563.91;1741206;81;20901;-62
2021/07/31 03:36:53;;;;;;;16.55;3.33;;;;;;;13.14;69.43;98564.09;1738216;80;20916;-62
2021/07/31 03:39:22;;;;;;;8.80;3.15;;;;;;;13.12;69.66;98571.23;1735509;81;21466;-62
2021/07/31 03:41:50;;;;;;;7.78;3.10;;;;;;;13.07;69.66;98573.36;1738173;81;21016;-62
2021/07/31 03:44:17;;;;;;;5.67;2.87;;;;;;;13.02;69.63;98571.56;1744238;81;20880;-62
2021/07/31 03:46:45;;;;;;;6.25;2.92;;;;;;;12.92;69.72;98566.67;1738759;81;20942;-62
2021/07/31 03:49:13;;;;;;;6.78;2.85;;;;;;;12.86;69.76;98567.97;1715418;81;21002;-62
2021/07/31 03:51:40;;;;;;;9.65;3.65;;;;;;;12.81;69.87;98571.88;1736967;81;21509;-62
2021/07/31 03:54:07;;;;;;;5.60;2.83;;;;;;;12.78;69.91;98582.59;1699204;83;21504;-63
2021/07/31 03:56:34;;;;;;;15.85;3.77;;;;;;;12.76;69.96;98580.91;1764057;79;20912;-63
2021/07/31 03:59:00;;;;;;;6.08;3.30;;;;;;;12.81;70.00;98585.81;1767593;80;20861;-63
2021/07/31 04:01:27;;;;;;;11.70;3.87;;;;;;;13.60;70.30;98580.72;1768826;80;20940;-62
2021/07/31 04:03:55;;;;;;;11.73;3.75;;;;;;;14.15;69.90;98580.79;1761696;80;20883;-62
2021/07/31 04:06:22;;;;;;;7.55;3.30;;;;;;;14.31;69.44;98578.57;1758995;80;21003;-63
2021/07/31 04:08:49;;;;;;;8.18;3.45;;;;;;;15.36;70.43;98562.91;1749004;80;20932;-63
2021/07/31 04:11:16;;;;;;;5.53;3.58;;;;;;;16.92;69.98;98572.00;1739979;81;21412;-62
2021/07/31 04:13:43;;;;;;;11.83;3.58;;;;;;;18.22;68.87;98566.79;1735070;80;20867;-63
2021/07/31 04:16:09;;;;;;;20.68;4.45;;;;;;;19.23;67.70;98570.80;1740006;80;20966;-63
2021/07/31 04:18:36;;;;;;;8.50;3.12;;;;;;;20.18;67.45;98573.42;1740685;80;22069;-63
2021/07/31 04:21:07;;;;;;;18.35;3.62;;;;;;;21.00;66.31;98576.19;1745938;81;21524;-63
2021/07/31 04:23:35;;;;;;;9.25;3.02;;;;;;;21.76;66.48;98571.40;1752400;81;21483;-63
2021/07/31 04:26:15;;;;;;;9.65;3.22;;;;;;;22.50;65.38;98578.03;1725497;81;20890;-63
2021/07/31 04:28:42;;;;;;;8.33;3.22;;;;;;;23.05;65.05;98576.63;1748817;81;20953;-64
2021/07/31 04:31:15;;;;;;;7.40;3.05;;;;;;;23.75;64.13;98581.61;1743316;81;21180;-63
2021/07/31 04:33:42;;;;;;;17.80;3.45;;;;;;;24.13;63.37;98583.61;1744443;81;20884;-64
2021/07/31 04:36:09;;;;;;;11.73;3.42;;;;;;;24.71;63.21;98572.15;1743920;81;20910;-64
2021/07/31 04:38:36;;;;;;;8.38;3.08;;;;;;;25.26;63.07;98574.56;1743198;81;20951;-64
2021/07/31 04:41:04;;;;;;;14.58;3.75;;;;;;;25.93;62.22;98566.44;1743871;81;21377;-64
2021/07/31 04:43:32;;;;;;;15.18;3.70;;;;;;;26.39;61.31;98563.11;1755174;81;21861;-63
2021/07/31 04:45:59;;;;;;;8.23;3.30;;;;;;;26.77;60.48;98561.22;1748185;81;20968;-63
2021/07/31 04:48:26;;;;;;;8.68;3.10;;;;;;;27.01;59.41;98553.92;1751105;81;20922;-64
2021/07/31 04:51:01;;;;;;;8.85;2.85;;;;;;;27.05;58.15;98557.52;1748193;81;21454;-64
2021/07/31 04:53:29;;;;;;;7.50;3.30;;;;;;;27.10;57.94;98561.75;1750077;81;20954;-64
2021/07/31 04:55:56;;;;;;;4.92;3.10;;;;;;;26.66;57.01;98565.84;1752000;79;21047;-63
2021/07/31 04:58:24;;;;;;;8.88;3.20;;;;;;;25.74;56.22;98563.13;1751734;81;20941;-63
2021/07/31 05:00:51;;;;;;;6.03;3.45;;;;;;;25.05;56.43;98567.41;1755155;81;21425;-63
2021/07/31 05:03:18;;;;;;;14.50;3.40;;;;;;;25.25;56.50;98556.07;1753952;81;21357;-63
2021/07/31 05:05:46;;;;;;;19.75;3.87;;;;;;;25.89;56.44;98559.85;1746955;81;20989;-63
2021/07/31 05:08:13;;;;;;;8.18;2.95;;;;;;;26.62;55.79;98561.42;1772876;80;21441;-63
2021/07/31 05:10:46;;;;;;;8.28;3.05;;;;;;;27.12;54.77;98558.35;1771410;80;20915;-63
2021/07/31 05:13:13;;;;;;;7.00;2.87;;;;;;;27.66;54.73;98561.27;1776221;79;20899;-64
2021/07/31 05:15:42;;;;;;;13.22;2.95;;;;;;;28.41;54.33;98558.08;1755346;79;20915;-64
2021/07/31 05:18:11;;;;;;;8.10;3.33;;;;;;;28.83;53.54;98559.78;1755343;81;20956;-64
2021/07/31 05:20:44;;;;;;;10.50;3.20;;;;;;;29.31;52.38;98557.84;1778315;79;21819;-64
2021/07/31 05:23:11;;;;;;;16.02;3.33;;;;;;;29.55;52.09;98559.66;1774492;79;21362;-64
2021/07/31 05:25:38;;;;;;;6.95;2.50;;;;;;;29.92;51.42;98551.60;1760513;81;20904;-64
2021/07/31 05:28:04;;;;;;;9.98;2.90;;;;;;;29.59;50.31;98552.77;1757148;79;21476;-64
2021/07/31 05:30:31;;;;;;;7.70;2.85;;;;;;;29.27;50.01;98545.87;1756212;80;20915;-63
2021/07/31 05:32:58;;;;;;;14.73;3.60;;;;;;;29.34;49.36;98544.77;1751897;81;21924;-63
2021/07/31 05:35:25;;;;;;;10.60;4.45;;;;;;;29.14;48.74;98550.34;1750808;81;21605;-64
2021/07/31 05:37:52;;;;;;;10.25;3.20;;;;;;;28.83;48.54;98547.69;1780683;79;20904;-63
2021/07/31 05:40:18;;;;;;;4.95;2.25;;;;;;;28.08;47.82;98545.66;1780500;79;21413;-64
2021/07/31 05:42:45;;;;;;;10.58;2.92;;;;;;;27.95;48.30;98551.08;1750297;81;21048;-63
2021/07/31 05:45:11;;;;;;;4.70;2.67;;;;;;;28.47;48.41;98539.27;1760198;79;21060;-64
2021/07/31 05:47:38;;;;;;;8.95;2.55;;;;;;;28.50;47.06;98538.01;1756392;79;20918;-64
2021/07/31 05:50:09;;;;;;;4.65;2.40;;;;;;;27.76;46.53;98542.88;1781249;79;21525;-64
2021/07/31 05:52:37;;;;;;;6.95;3.30;;;;;;;27.03;46.35;98539.48;1776517;79;20926;-63
2021/07/31 05:55:07;;;;;;;9.20;2.50;;;;;;;26.62;46.47;98537.84;1781663;79;21453;-63
2021/07/31 05:57:34;;;;;;;5.22;2.55;;;;;;;26.87;46.92;98546.10;1750512;81;21484;-63
2021/07/31 06:00:01;;;;;;;12.73;2.35;;;;;;;27.17;45.87;98546.53;1750517;81;21592;-63
2021/07/31 06:02:28;;;;;;;6.20;2.15;;;;;;;27.45;45.60;98552.45;1780250;79;20966;-64
2021/07/31 06:04:54;;;;;;;5.47;2.55;;;;;;;27.79;45.26;98549.19;1778337;79;20911;-63
2021/07/31 06:07:21;;;;;;;10.08;2.58;;;;;;;28.05;45.06;98558.16;1778839;79;20960;-64
2021/07/31 06:09:51;;;;;;;5.70;2.25;;;;;;;28.52;45.23;98558.23;1762771;80;20945;-64
2021/07/31 06:12:18;;;;;;;7.78;2.45;;;;;;;29.04;44.82;98559.41;1768167;80;20932;-63
2021/07/31 06:14:45;;;;;;;8.68;2.20;;;;;;;28.93;44.29;98558.75;1755270;81;20942;-63
2021/07/31 06:17:11;;;;;;;5.40;2.40;;;;;;;28.95;44.06;98556.67;1754095;81;20910;-64
2021/07/31 06:19:38;;;;;;;8.43;2.45;;;;;;;28.80;43.71;98561.56;1753407;81;20937;-63
2021/07/31 06:22:05;;;;;;;11.55;2.75;;;;;;;28.21;43.35;98548.28;1753022;81;21223;-63
2021/07/31 06:24:32;;;;;;;12.03;2.60;;;;;;;27.87;43.31;98552.98;1756410;81;20919;-63
2021/07/31 06:26:59;;;;;;;4.08;2.22;;;;;;;27.85;43.34;98545.66;1750239;81;20934;-63
2021/07/31 06:29:26;;;;;;;41.30;4.15;;;;;;;28.12;43.29;98544.20;1752590;81;21052;-64
2021/07/31 06:31:52;;;;;;;11.38;3.30;;;;;;;28.20;43.14;98553.84;1757727;81;21464;-64
2021/07/31 06:34:20;;;;;;;8.33;2.83;;;;;;;28.11;42.89;98551.41;1755687;81;21960;-64
2021/07/31 06:36:46;;;;;;;7.37;2.67;;;;;;;28.13;42.33;98545.84;1757538;81;20950;-64
2021/07/31 06:39:13;;;;;;;10.53;2.85;;;;;;;27.74;42.08;98547.63;1757686;81;20970;-63
2021/07/31 06:41:40;;;;;;;6.05;2.60;;;;;;;27.40;42.37;98546.08;1753893;81;21428;-63
2021/07/31 06:44:07;;;;;;;8.40;2.65;;;;;;;26.93;41.81;98543.41;1753267;81;20986;-63
2021/07/31 06:46:33;;;;;;;6.00;2.47;;;;;;;26.53;42.00;98543.39;1757196;81;21011;-63
2021/07/31 06:49:00;;;;;;;11.63;3.00;;;;;;;26.12;42.20;98541.62;1754657;81;20986;-63
2021/07/31 06:51:26;;;;;;;;;;;;;;;25.77;42.16;98538.19;1762613;81;20926;-63
2021/07/31 06:53:53;;;;;;;21.77;3.42;;;;;;;25.45;42.22;98545.81;1760201;81;20078;-63
2021/07/31 06:56:20;;;;;;;;;;;;;;;25.20;42.35;98542.77;1757700;81;20946;-63
2021/07/31 06:58:46;;;;;;;;;;;;;;;25.00;42.47;98544.45;1757295;81;21084;-63
2021/07/31 07:01:13;;;;;;;;;;;;;;;24.91;42.81;98543.77;1756269;81;20123;-62
2021/07/31 07:03:43;;;;;;;11.73;3.05;;;;;;;25.47;43.02;98541.62;1760195;81;20105;-62
2021/07/31 07:06:11;;;;;;;5.10;2.62;;;;;;;26.10;42.94;98539.67;1763373;81;21009;-61
2021/07/31 07:08:38;;;;;;;9.40;3.02;;;;;;;26.72;42.86;98530.22;1753404;81;20973;-63
2021/07/31 07:11:06;;;;;;;9.63;2.80;;;;;;;27.24;42.71;98525.89;1753365;81;20991;-63
2021/07/31 07:13:32;;;;;;;6.92;2.40;;;;;;;27.84;42.73;98527.92;1745972;81;20899;-62
2021/07/31 07:16:03;;;;;;;9.23;2.42;;;;;;;28.20;42.15;98516.27;1740449;81;20924;-63
2021/07/31 07:18:29;;;;;;;21.12;3.72;;;;;;;28.24;42.04;98504.91;1749472;81;20915;-62
2021/07/31 07:20:56;;;;;;;7.70;2.60;;;;;;;28.31;41.92;98502.16;1746184;81;20956;-62
2021/07/31 07:23:23;;;;;;;6.87;2.65;;;;;;;28.46;41.89;98508.63;1743503;81;21051;-63
2021/07/31 07:25:50;;;;;;;3.98;1.80;;;;;;;28.55;41.70;98519.39;1739767;81;20923;-63
2021/07/31 07:28:16;;;;;;;8.38;2.65;;;;;;;28.67;41.47;98517.63;1745781;81;20903;-62
2021/07/31 07:30:46;;;;;;;10.05;2.60;;;;;;;28.45;41.17;98513.67;1742713;81;21474;-64
2021/07/31 07:33:14;;;;;;;6.75;2.42;;;;;;;28.36;41.13;98517.63;1747449;81;20990;-62
2021/07/31 07:35:40;;;;;;;6.50;2.60;;;;;;;28.12;40.92;98514.69;1746883;81;21916;-62
2021/07/31 07:38:07;;;;;;;4.70;2.87;;;;;;;27.78;40.85;98516.65;1738082;81;20879;-62
2021/07/31 07:40:35;;;;;;;20.88;3.22;;;;;;;27.40;40.75;98513.39;1741562;81;20982;-63
2021/07/31 07:43:01;;;;;;;7.53;2.25;;;;;;;27.04;40.46;98506.33;1744421;81;20938;-62
2021/07/31 07:45:31;;;;;;;11.15;2.72;;;;;;;26.70;40.71;98501.51;1750016;80;20911;-62
2021/07/31 07:47:58;;;;;;;5.95;2.45;;;;;;;26.38;40.81;98503.91;1744106;81;21065;-63
2021/07/31 07:50:25;;;;;;;8.93;2.60;;;;;;;26.11;40.81;98497.70;1767588;80;20945;-63
2021/07/31 07:52:51;;;;;;;;;;;;;;;25.92;41.04;98505.16;1773143;80;20962;-64
2021/07/31 07:55:18;;;;;;;14.03;2.90;;;;;;;25.88;41.23;98510.08;1765954;80;20096;-63
2021/07/31 07:57:45;;;;;;;6.45;3.12;;;;;;;25.88;41.37;98507.41;1743753;80;20995;-64
2021/07/31 08:00:12;;;;;;;24.98;3.62;;;;;;;25.86;41.50;98501.43;1746684;80;21291;-65
2021/07/31 08:02:39;;;;;;;6.53;2.27;;;;;;;25.98;41.52;98497.14;1768872;79;20971;-64
2021/07/31 08:05:07;;;;;;;8.70;2.55;;;;;;;26.01;41.56;98499.41;1775005;80;21453;-63
2021/07/31 08:07:33;;;;;;;5.97;2.30;;;;;;;25.97;41.56;98495.50;1765462;79;20890;-63
2021/07/31 08:10:00;;;;;;;;;;;;;;;25.71;41.29;98501.55;1774758;80;20961;-64
2021/07/31 08:12:27;;;;;;;5.85;2.42;;;;;;;25.42;41.40;98499.96;1730674;81;21273;-64
2021/07/31 08:14:54;;;;;;;6.50;2.33;;;;;;;25.08;41.51;98504.25;1775763;79;20918;-64
2021/07/31 08:17:20;;;;;;;3.52;2.35;;;;;;;24.72;41.66;98507.87;1781410;79;21453;-64
2021/07/31 08:19:47;;;;;;;12.28;3.08;;;;;;;24.40;41.77;98503.06;1778072;79;20892;-64
2021/07/31 08:22:14;;;;;;;24.12;3.40;;;;;;;24.07;42.00;98506.22;1770976;79;20872;-64
2021/07/31 08:24:40;;;;;;;7.50;2.30;;;;;;;23.80;42.40;98511.23;1752660;79;21949;-64
2021/07/31 08:27:07;;;;;;;10.95;2.45;;;;;;;23.62;42.57;98506.27;1747055;81;20955;-63
2021/07/31 08:29:34;;;;;;;;;;;;;;;23.51;42.85;98505.92;1775830;79;20946;-63
2021/07/31 08:32:01;;;;;;;;;;;;;;;23.55;43.13;98498.69;1775876;80;20414;-64
2021/07/31 08:34:29;;;;;;;;;;;;;;;23.66;43.59;98498.72;1778745;80;20432;-64
2021/07/31 08:37:02;;;;;;;8.65;2.87;;;;;;;23.83;43.54;98486.05;1759163;79;22357;-63
2021/07/31 08:39:29;;;;;;;9.85;2.58;;;;;;;24.03;43.65;98496.92;1778250;79;21400;-63
2021/07/31 08:41:56;;;;;;;9.05;2.70;;;;;;;24.11;43.73;98500.33;1751641;79;20950;-64
2021/07/31 08:44:23;;;;;;;7.42;2.98;;;;;;;24.29;43.96;98489.21;1784880;79;20930;-65
2021/07/31 08:46:51;;;;;;;;;;;;;;;24.46;43.94;98486.32;1779524;79;20938;-64
2021/07/31 08:49:19;;;;;;;6.78;2.85;;;;;;;24.64;44.13;98482.66;1750958;79;21698;-64
2021/07/31 08:51:48;;;;;;;6.03;2.45;;;;;;;24.90;44.14;98487.88;1752396;80;20891;-64
2021/07/31 08:54:14;;;;;;;6.92;2.70;;;;;;;25.07;44.03;98485.25;1771625;80;20932;-64
2021/07/31 08:56:47;;;;;;;9.73;2.67;;;;;;;25.12;44.10;98473.48;1762625;79;20882;-64
2021/07/31 08:59:11;;;;;;;16.40;3.10;;;;;;;25.33;44.36;98477.93;1740602;81;20940;-64
2021/07/31 09:01:37;;;;;;;10.38;2.62;;;;;;;25.59;44.34;98469.20;1754739;79;21858;-64
2021/07/31 09:04:23;;;;;;;4.03;2.42;;;;;;;25.73;44.20;98479.95;1774784;79;21653;-64
2021/07/31 09:06:50;;;;;;;8.68;2.90;;;;;;;25.89;44.45;98468.42;1754610;81;21404;-64
2021/07/31 09:09:27;;;;;;;5.95;2.65;;;;;;;26.22;44.44;98470.88;1771475;79;20864;-65
2021/07/31 09:12:05;;;;;;;4.75;2.22;;;;;;;26.62;44.31;98462.89;1783389;79;21429;-65
2021/07/31 09:14:33;;;;;;;7.75;2.62;;;;;;;26.91;44.34;98449.05;1776273;79;21105;-64
2021/07/31 09:16:59;;;;;;;5.45;2.37;;;;;;;27.36;44.27;98451.03;1762954;80;20914;-64
2021/07/31 09:19:28;;;;;;;4.97;2.27;;;;;;;27.48;43.67;98443.99;1747840;80;21469;-64
2021/07/31 09:22:07;;;;;;;8.53;2.37;;;;;;;27.44;43.55;98436.87;1753584;81;20949;-64
2021/07/31 09:24:35;;;;;;;5.25;2.35;;;;;;;27.41;43.54;98441.32;1742173;81;21025;-64
2021/07/31 09:27:02;;;;;;;11.60;2.67;;;;;;;27.49;43.46;98444.28;1740983;81;21820;-64
2021/07/31 09:29:33;;;;;;;6.00;2.30;;;;;;;27.63;43.11;98442.38;1750529;80;20914;-63
2021/07/31 09:32:04;;;;;;;7.55;2.33;;;;;;;27.64;43.08;98441.33;1736413;81;21512;-63
2021/07/31 09:34:33;;;;;;;6.62;2.87;;;;;;;27.56;42.46;98439.73;1716279;81;20926;-64
2021/07/31 09:37:23;;;;;;;14.93;2.45;;;;;;;27.40;42.52;98437.00;1769375;80;20970;-64
2021/07/31 09:40:04;;;;;;;5.17;2.05;;;;;;;27.38;42.61;98433.70;1772710;80;21255;-64
2021/07/31 09:42:34;;;;;;;7.92;2.42;;;;;;;27.43;42.56;98431.22;1770641;80;21433;-65
2021/07/31 09:45:14;;;;;;;11.53;2.87;;;;;;;27.45;42.29;98436.38;1750450;80;20897;-64
2021/07/31 09:48:04;;;;;;;8.68;2.72;;;;;;;27.42;42.37;98429.58;1768421;80;21385;-64
2021/07/31 09:50:46;;;;;;;5.67;2.55;;;;;;;27.40;42.03;98420.92;1767236;80;20891;-64
2021/07/31 09:53:21;;;;;;;9.98;2.98;;;;;;;27.45;42.48;98425.13;1749428;81;20987;-64
2021/07/31 09:55:51;;;;;;;9.23;3.30;;;;;;;27.75;42.35;98427.23;1754888;80;37373;-65
2021/07/31 09:58:20;;;;;;;8.98;2.67;;;;;;;28.13;42.33;98422.41;1765643;80;20927;-64
2021/07/31 10:00:51;;;;;;;8.50;2.75;;;;;;;28.21;41.74;98419.46;1772587;80;20903;-64
2021/07/31 10:03:18;;;;;;;21.65;3.30;;;;;;;28.23;41.86;98420.56;1767007;80;21017;-63
2021/07/31 10:05:45;;;;;;;6.80;2.40;;;;;;;28.18;41.49;98415.87;1747498;80;21682;-65
2021/07/31 10:08:12;;;;;;;9.78;3.15;;;;;;;27.87;41.31;98423.41;1742436;81;21939;-64
2021/07/31 10:10:40;;;;;;;9.83;2.77;;;;;;;27.63;41.14;98422.27;1734432;80;20958;-63
2021/07/31 10:13:07;;;;;;;6.62;2.47;;;;;;;27.50;41.32;98420.98;1757341;80;21019;-64
2021/07/31 10:15:34;;;;;;;6.35;2.33;;;;;;;27.31;41.19;98424.88;1761325;80;21424;-64
2021/07/31 10:18:10;;;;;;;10.95;3.00;;;;;;;27.09;41.12;98419.47;1773919;80;21135;-64
2021/07/31 10:20:38;;;;;;;8.55;2.75;;;;;;;27.00;41.50;98421.03;1750817;81;21371;-64
2021/07/31 10:23:07;;;;;;;7.05;3.00;;;;;;;27.20;41.50;98417.50;1759510;80;21511;-64
2021/07/31 10:25:33;;;;;;;10.45;3.02;;;;;;;27.36;41.47;98411.67;1759395;80;20947;-64
2021/07/31 10:28:26;;;;;;;10.78;2.80;;;;;;;27.55;41.70;98407.76;1744814;81;20926;-64
2021/07/31 10:30:52;;;;;;;5.42;2.33;;;;;;;27.79;41.61;98416.44;1755451;80;21056;-64
2021/07/31 10:33:45;;;;;;;10.03;2.90;;;;;;;27.95;41.34;98414.27;1761926;80;20930;-64
2021/07/31 10:36:34;;;;;;;6.78;2.75;;;;;;;27.86;41.35;98405.12;1756145;80;20965;-64
2021/07/31 10:39:29;;;;;;;5.30;2.62;;;;;;;27.93;41.48;98394.91;1777429;80;21010;-64
2021/07/31 10:42:02;;;;;;;8.48;3.10;;;;;;;28.21;41.47;98398.52;1778267;80;20942;-64
2021/07/31 10:44:29;;;;;;;6.20;2.70;;;;;;;28.59;41.42;98397.06;1776658;80;21109;-64
2021/07/31 10:47:24;;;;;;;9.05;3.22;;;;;;;28.86;41.56;98383.38;1774180;80;20863;-64
2021/07/31 10:49:51;;;;;;;5.92;2.62;;;;;;;29.26;41.46;98384.30;1759145;80;20895;-65
2021/07/31 10:53:02;;;;;;;7.65;3.27;;;;;;;28.95;40.58;98399.50;1771230;80;20942;-65
2021/07/31 10:55:46;;;;;;;5.70;2.80;;;;;;;28.40;40.37;98389.98;1770968;80;20961;-65
2021/07/31 10:58:20;;;;;;;10.35;2.67;;;;;;;27.80;40.56;98393.93;1776209;80;21048;-64
2021/07/31 11:01:11;;;;;;;8.73;3.05;;;;;;;27.50;40.63;98388.81;1775091;80;20910;-64
2021/07/31 11:03:40;;;;;;;12.58;2.77;;;;;;;27.26;40.76;98392.53;1776622;80;21456;-64
2021/07/31 11:06:07;;;;;;;15.95;3.90;;;;;;;26.89;40.81;98385.52;1776352;80;20950;-64
2021/07/31 11:08:35;;;;;;;;;;;;;;;26.65;41.03;98395.03;1773092;79;21419;-64
2021/07/31 11:11:22;;;;;;;10.00;3.37;;;;;;;26.43;41.06;98391.72;1715719;81;21224;-64
2021/07/31 11:13:54;;;;;;;9.48;3.20;;;;;;;26.26;41.20;98383.81;1754051;81;21417;-65
2021/07/31 11:16:23;;;;;;;9.15;3.17;;;;;;;26.19;41.39;98391.84;1772128;80;20921;-64
2021/07/31 11:18:54;;;;;;;25.32;4.28;;;;;;;26.20;41.44;98410.05;1756372;81;20961;-65
2021/07/31 11:21:33;;;;;;;20.90;3.50;;;;;;;25.98;41.44;98400.86;1770221;80;20895;-64
2021/07/31 11:24:09;;;;;;;10.28;3.75;;;;;;;25.74;41.59;98396.89;1754525;80;21061;-64
2021/07/31 11:26:54;;;;;;;9.65;3.27;;;;;;;25.28;41.68;98404.74;1773990;80;20958;-64
2021/07/31 11:29:26;;;;;;;3.50;2.75;;;;;;;24.88;42.19;98409.86;1768721;80;21539;-64
2021/07/31 11:32:19;;;;;;;9.60;3.33;;;;;;;24.69;42.82;98414.86;1778942;80;21449;-65
2021/07/31 11:34:45;;;;;;;11.45;3.37;;;;;;;24.65;43.15;98413.61;1778692;80;20950;-64
2021/07/31 11:37:14;;;;;;;6.80;3.15;;;;;;;24.91;43.43;98405.45;1749673;81;22556;-64
2021/07/31 11:39:41;;;;;;;7.62;3.80;;;;;;;25.05;43.57;98410.36;1759495;80;20851;-64
2021/07/31 11:42:09;;;;;;;9.38;3.20;;;;;;;24.99;43.77;98398.63;1750264;81;20942;-65